sensor_id;sensor_type;location;lat;lon;timestamp;temperature;humidity
12370;DHT22;6249;52.128;9.986;2023-04-15T00:02:32;8.40;99.90
12370;DHT22;6249;52.128;9.986;2023-04-15T00:05:53;8.30;99.90
12370;DHT22;6249;52.128;9.986;2023-04-15T00:09:13;8.20;99.90
12370;DHT22;6249;52.128;9.986;2023-04-15T00:12:34;8.10;99.90
12370;DHT22;6249;52.128;9.986;2023-04-15T00:15:55;8.10;99.90
12370;DHT22;6249;52.128;9.986;2023-04-15T00:19:15;8.20;99.90
12370;DHT22;6249;52.128;9.986;2023-04-15T00:22:41;8.20;99.90
12370;DHT22;6249;52.128;9.986;2023-04-15T00:26:01;8.30;99.90
12370;DHT22;6249;52.128;9.986;2023-04-15T00:29:25;8.20;99.90
12370;DHT22;6249;52.128;9.986;2023-04-15T00:32:47;8.30;99.90
12370;DHT22;6249;52.128;9.986;2023-04-15T00:36:09;8.20;99.90
12370;DHT22;6249;52.128;9.986;2023-04-15T00:39:30;8.20;99.90
12370;DHT22;6249;52.128;9.986;2023-04-15T00:42:51;8.20;99.90
12370;DHT22;6249;52.128;9.986;2023-04-15T00:46:14;8.20;99.90
12370;DHT22;6249;52.128;9.986;2023-04-15T00:49:35;8.30;99.90
12370;DHT22;6249;52.128;9.986;2023-04-15T00:52:56;8.30;99.90
12370;DHT22;6249;52.128;9.986;2023-04-15T00:56:17;8.30;99.90
12370;DHT22;6249;52.128;9.986;2023-04-15T00:59:39;8.30;99.90
12370;DHT22;6249;52.128;9.986;2023-04-15T01:03:00;8.30;99.90
12370;DHT22;6249;52.128;9.986;2023-04-15T01:06:21;8.30;99.90
12370;DHT22;6249;52.128;9.986;2023-04-15T01:09:41;8.40;99.90
12370;DHT22;6249;52.128;9.986;2023-04-15T01:13:02;8.40;99.90
12370;DHT22;6249;52.128;9.986;2023-04-15T01:16:23;8.40;99.90
12370;DHT22;6249;52.128;9.986;2023-04-15T01:19:44;8.30;99.90
12370;DHT22;6249;52.128;9.986;2023-04-15T01:23:07;8.30;99.90
12370;DHT22;6249;52.128;9.986;2023-04-15T01:26:28;8.30;99.90
12370;DHT22;6249;52.128;9.986;2023-04-15T01:29:53;8.20;99.90
12370;DHT22;6249;52.128;9.986;2023-04-15T01:33:16;8.20;99.90
12370;DHT22;6249;52.128;9.986;2023-04-15T01:36:42;8.30;99.90
12370;DHT22;6249;52.128;9.986;2023-04-15T01:40:05;8.30;99.90
12370;DHT22;6249;52.128;9.986;2023-04-15T01:43:28;8.20;99.90
12370;DHT22;6249;52.128;9.986;2023-04-15T01:47:04;8.30;99.90
12370;DHT22;6249;52.128;9.986;2023-04-15T01:50:24;8.30;99.90
12370;DHT22;6249;52.128;9.986;2023-04-15T01:53:46;8.30;99.90
12370;DHT22;6249;52.128;9.986;2023-04-15T01:57:07;8.30;99.90
12370;DHT22;6249;52.128;9.986;2023-04-15T02:00:30;8.30;99.90
12370;DHT22;6249;52.128;9.986;2023-04-15T02:03:51;8.30;99.90
12370;DHT22;6249;52.128;9.986;2023-04-15T02:07:12;8.30;99.90
12370;DHT22;6249;52.128;9.986;2023-04-15T02:10:32;8.30;99.90
12370;DHT22;6249;52.128;9.986;2023-04-15T02:13:53;8.30;99.90
12370;DHT22;6249;52.128;9.986;2023-04-15T02:17:14;8.30;99.90
12370;DHT22;6249;52.128;9.986;2023-04-15T02:20:34;8.30;99.90
12370;DHT22;6249;52.128;9.986;2023-04-15T02:23:56;8.50;99.90
12370;DHT22;6249;52.128;9.986;2023-04-15T02:27:17;8.40;99.90
12370;DHT22;6249;52.128;9.986;2023-04-15T02:30:40;8.30;99.90
12370;DHT22;6249;52.128;9.986;2023-04-15T02:34:01;8.30;99.90
12370;DHT22;6249;52.128;9.986;2023-04-15T02:37:23;8.30;99.90
12370;DHT22;6249;52.128;9.986;2023-04-15T02:40:46;8.30;99.90
12370;DHT22;6249;52.128;9.986;2023-04-15T02:44:08;8.40;99.90
12370;DHT22;6249;52.128;9.986;2023-04-15T02:47:29;8.40;99.90
12370;DHT22;6249;52.128;9.986;2023-04-15T02:50:50;8.40;99.90
12370;DHT22;6249;52.128;9.986;2023-04-15T02:54:10;8.40;99.90
12370;DHT22;6249;52.128;9.986;2023-04-15T02:57:31;8.40;99.90
12370;DHT22;6249;52.128;9.986;2023-04-15T03:00:54;8.40;99.90
12370;DHT22;6249;52.128;9.986;2023-04-15T03:04:17;8.40;99.90
12370;DHT22;6249;52.128;9.986;2023-04-15T03:07:40;8.40;99.90
12370;DHT22;6249;52.128;9.986;2023-04-15T03:11:01;8.30;99.90
12370;DHT22;6249;52.128;9.986;2023-04-15T03:14:22;8.30;99.90
12370;DHT22;6249;52.128;9.986;2023-04-15T03:17:42;8.30;99.90
12370;DHT22;6249;52.128;9.986;2023-04-15T03:21:03;8.30;99.90
12370;DHT22;6249;52.128;9.986;2023-04-15T03:24:23;8.30;99.90
12370;DHT22;6249;52.128;9.986;2023-04-15T03:27:44;8.30;99.90
12370;DHT22;6249;52.128;9.986;2023-04-15T03:31:05;8.30;99.90
12370;DHT22;6249;52.128;9.986;2023-04-15T03:34:26;8.30;99.90
12370;DHT22;6249;52.128;9.986;2023-04-15T03:37:50;8.20;99.90
12370;DHT22;6249;52.128;9.986;2023-04-15T03:41:14;8.20;99.90
12370;DHT22;6249;52.128;9.986;2023-04-15T03:44:34;8.20;99.90
12370;DHT22;6249;52.128;9.986;2023-04-15T03:47:57;8.20;99.90
12370;DHT22;6249;52.128;9.986;2023-04-15T03:51:18;8.20;99.90
12370;DHT22;6249;52.128;9.986;2023-04-15T03:54:39;8.20;99.90
12370;DHT22;6249;52.128;9.986;2023-04-15T03:57:59;8.10;99.90
12370;DHT22;6249;52.128;9.986;2023-04-15T04:01:22;8.10;99.90
12370;DHT22;6249;52.128;9.986;2023-04-15T04:04:42;8.10;99.90
12370;DHT22;6249;52.128;9.986;2023-04-15T04:08:06;8.00;99.90
12370;DHT22;6249;52.128;9.986;2023-04-15T04:11:29;8.00;99.90
12370;DHT22;6249;52.128;9.986;2023-04-15T04:14:50;7.90;99.90
12370;DHT22;6249;52.128;9.986;2023-04-15T04:18:10;8.00;99.90
12370;DHT22;6249;52.128;9.986;2023-04-15T04:21:32;7.80;99.90
12370;DHT22;6249;52.128;9.986;2023-04-15T04:24:55;7.80;99.90
12370;DHT22;6249;52.128;9.986;2023-04-15T04:28:18;7.80;99.90
12370;DHT22;6249;52.128;9.986;2023-04-15T04:31:39;7.80;99.90
12370;DHT22;6249;52.128;9.986;2023-04-15T04:34:59;7.80;99.90
12370;DHT22;6249;52.128;9.986;2023-04-15T04:38:20;7.80;99.90
12370;DHT22;6249;52.128;9.986;2023-04-15T04:41:41;7.70;99.90
12370;DHT22;6249;52.128;9.986;2023-04-15T04:45:04;7.70;99.90
12370;DHT22;6249;52.128;9.986;2023-04-15T04:48:24;7.80;99.90
12370;DHT22;6249;52.128;9.986;2023-04-15T04:51:45;7.70;99.90
12370;DHT22;6249;52.128;9.986;2023-04-15T04:55:08;7.70;99.90
12370;DHT22;6249;52.128;9.986;2023-04-15T04:58:29;7.70;99.90
12370;DHT22;6249;52.128;9.986;2023-04-15T05:01:50;7.70;99.90
12370;DHT22;6249;52.128;9.986;2023-04-15T05:05:12;7.70;99.90
12370;DHT22;6249;52.128;9.986;2023-04-15T05:08:35;7.70;99.90
12370;DHT22;6249;52.128;9.986;2023-04-15T05:11:57;7.70;99.90
12370;DHT22;6249;52.128;9.986;2023-04-15T05:15:18;7.80;99.90
12370;DHT22;6249;52.128;9.986;2023-04-15T05:18:38;7.80;99.90
12370;DHT22;6249;52.128;9.986;2023-04-15T05:21:59;7.80;99.90
12370;DHT22;6249;52.128;9.986;2023-04-15T05:25:20;7.80;99.90
12370;DHT22;6249;52.128;9.986;2023-04-15T05:28:40;7.70;99.90
12370;DHT22;6249;52.128;9.986;2023-04-15T05:32:06;7.70;99.90
12370;DHT22;6249;52.128;9.986;2023-04-15T05:35:31;7.70;99.90
12370;DHT22;6249;52.128;9.986;2023-04-15T05:38:54;7.70;99.90
12370;DHT22;6249;52.128;9.986;2023-04-15T05:42:15;7.70;99.90
12370;DHT22;6249;52.128;9.986;2023-04-15T05:45:37;7.70;99.90
12370;DHT22;6249;52.128;9.986;2023-04-15T05:48:58;7.70;99.90
12370;DHT22;6249;52.128;9.986;2023-04-15T05:52:21;7.70;99.90
12370;DHT22;6249;52.128;9.986;2023-04-15T05:55:42;7.70;99.90
12370;DHT22;6249;52.128;9.986;2023-04-15T05:59:02;7.70;99.90
12370;DHT22;6249;52.128;9.986;2023-04-15T06:02:23;7.70;99.90
12370;DHT22;6249;52.128;9.986;2023-04-15T06:05:43;7.70;99.90
12370;DHT22;6249;52.128;9.986;2023-04-15T06:09:04;7.80;99.90
12370;DHT22;6249;52.128;9.986;2023-04-15T06:12:24;7.80;99.90
12370;DHT22;6249;52.128;9.986;2023-04-15T06:15:45;7.70;99.90
12370;DHT22;6249;52.128;9.986;2023-04-15T06:19:08;7.80;99.90
12370;DHT22;6249;52.128;9.986;2023-04-15T06:22:31;7.80;99.90
12370;DHT22;6249;52.128;9.986;2023-04-15T06:25:52;7.70;99.90
12370;DHT22;6249;52.128;9.986;2023-04-15T06:29:13;7.70;99.90
12370;DHT22;6249;52.128;9.986;2023-04-15T06:32:33;7.70;99.90
12370;DHT22;6249;52.128;9.986;2023-04-15T06:35:56;7.70;99.90
12370;DHT22;6249;52.128;9.986;2023-04-15T06:39:17;7.70;99.90
12370;DHT22;6249;52.128;9.986;2023-04-15T06:42:39;7.70;99.90
12370;DHT22;6249;52.128;9.986;2023-04-15T06:46:01;7.70;99.90
12370;DHT22;6249;52.128;9.986;2023-04-15T06:49:21;7.70;99.90
12370;DHT22;6249;52.128;9.986;2023-04-15T06:52:42;7.80;99.90
12370;DHT22;6249;52.128;9.986;2023-04-15T06:56:03;7.80;99.90
12370;DHT22;6249;52.128;9.986;2023-04-15T06:59:26;7.80;99.90
12370;DHT22;6249;52.128;9.986;2023-04-15T07:02:47;7.80;99.90
12370;DHT22;6249;52.128;9.986;2023-04-15T07:06:07;7.80;99.90
12370;DHT22;6249;52.128;9.986;2023-04-15T07:09:28;7.80;99.90
12370;DHT22;6249;52.128;9.986;2023-04-15T07:12:52;7.80;99.90
12370;DHT22;6249;52.128;9.986;2023-04-15T07:16:15;7.90;99.90
12370;DHT22;6249;52.128;9.986;2023-04-15T07:19:38;7.90;99.90
12370;DHT22;6249;52.128;9.986;2023-04-15T07:22:58;7.90;99.90
12370;DHT22;6249;52.128;9.986;2023-04-15T07:26:19;7.90;99.90
12370;DHT22;6249;52.128;9.986;2023-04-15T07:29:41;8.00;99.90
12370;DHT22;6249;52.128;9.986;2023-04-15T07:33:04;8.00;99.90
12370;DHT22;6249;52.128;9.986;2023-04-15T07:36:27;8.10;99.90
12370;DHT22;6249;52.128;9.986;2023-04-15T07:39:48;8.00;99.90
12370;DHT22;6249;52.128;9.986;2023-04-15T07:43:09;8.10;99.90
12370;DHT22;6249;52.128;9.986;2023-04-15T07:46:32;8.10;99.90
12370;DHT22;6249;52.128;9.986;2023-04-15T07:49:53;8.10;99.90
12370;DHT22;6249;52.128;9.986;2023-04-15T07:53:14;8.10;99.90
12370;DHT22;6249;52.128;9.986;2023-04-15T07:56:36;7.90;99.90
12370;DHT22;6249;52.128;9.986;2023-04-15T07:59:57;8.10;99.90
12370;DHT22;6249;52.128;9.986;2023-04-15T08:03:17;8.10;99.90
12370;DHT22;6249;52.128;9.986;2023-04-15T08:06:38;8.20;99.90
12370;DHT22;6249;52.128;9.986;2023-04-15T08:10:01;8.30;99.90
12370;DHT22;6249;52.128;9.986;2023-04-15T08:13:25;8.30;99.90
12370;DHT22;6249;52.128;9.986;2023-04-15T08:16:46;8.20;99.90
12370;DHT22;6249;52.128;9.986;2023-04-15T08:20:07;8.30;99.90
12370;DHT22;6249;52.128;9.986;2023-04-15T08:23:28;8.30;99.90
12370;DHT22;6249;52.128;9.986;2023-04-15T08:26:51;8.40;99.90
12370;DHT22;6249;52.128;9.986;2023-04-15T08:30:12;8.40;99.90
12370;DHT22;6249;52.128;9.986;2023-04-15T08:33:36;8.30;99.90
12370;DHT22;6249;52.128;9.986;2023-04-15T08:36:59;8.30;99.90
12370;DHT22;6249;52.128;9.986;2023-04-15T08:40:22;8.30;99.90
12370;DHT22;6249;52.128;9.986;2023-04-15T08:43:56;8.30;99.90
12370;DHT22;6249;52.128;9.986;2023-04-15T08:47:20;8.40;99.90
12370;DHT22;6249;52.128;9.986;2023-04-15T08:50:45;8.30;99.90
12370;DHT22;6249;52.128;9.986;2023-04-15T08:54:08;8.40;99.90
12370;DHT22;6249;52.128;9.986;2023-04-15T08:57:30;8.40;99.90
12370;DHT22;6249;52.128;9.986;2023-04-15T09:00:51;8.40;99.90
12370;DHT22;6249;52.128;9.986;2023-04-15T09:04:12;8.40;99.90
12370;DHT22;6249;52.128;9.986;2023-04-15T09:07:33;8.40;99.90
12370;DHT22;6249;52.128;9.986;2023-04-15T09:10:55;8.50;99.90
12370;DHT22;6249;52.128;9.986;2023-04-15T09:14:21;8.50;99.90
12370;DHT22;6249;52.128;9.986;2023-04-15T09:17:43;8.50;99.90
12370;DHT22;6249;52.128;9.986;2023-04-15T09:21:11;8.60;99.90
12370;DHT22;6249;52.128;9.986;2023-04-15T09:24:39;8.60;99.90
12370;DHT22;6249;52.128;9.986;2023-04-15T09:28:03;8.70;99.90
12370;DHT22;6249;52.128;9.986;2023-04-15T09:31:29;8.70;99.90
12370;DHT22;6249;52.128;9.986;2023-04-15T09:34:52;8.80;99.90
12370;DHT22;6249;52.128;9.986;2023-04-15T09:38:13;8.80;99.90
12370;DHT22;6249;52.128;9.986;2023-04-15T09:41:39;8.80;99.90
12370;DHT22;6249;52.128;9.986;2023-04-15T09:45:12;8.80;99.90
12370;DHT22;6249;52.128;9.986;2023-04-15T09:48:33;8.80;99.90
12370;DHT22;6249;52.128;9.986;2023-04-15T09:52:00;8.90;99.90
12370;DHT22;6249;52.128;9.986;2023-04-15T09:55:23;8.90;99.90
12370;DHT22;6249;52.128;9.986;2023-04-15T09:58:55;8.90;99.90
12370;DHT22;6249;52.128;9.986;2023-04-15T10:02:18;9.00;99.90
12370;DHT22;6249;52.128;9.986;2023-04-15T10:05:40;9.00;99.90
12370;DHT22;6249;52.128;9.986;2023-04-15T10:09:03;9.10;99.90
12370;DHT22;6249;52.128;9.986;2023-04-15T10:12:26;9.10;99.90
12370;DHT22;6249;52.128;9.986;2023-04-15T10:15:50;9.10;99.90
12370;DHT22;6249;52.128;9.986;2023-04-15T10:19:13;9.10;99.90
12370;DHT22;6249;52.128;9.986;2023-04-15T10:22:36;9.10;99.90
12370;DHT22;6249;52.128;9.986;2023-04-15T10:25:59;9.20;99.90
12370;DHT22;6249;52.128;9.986;2023-04-15T10:29:21;9.20;99.90
12370;DHT22;6249;52.128;9.986;2023-04-15T10:32:43;9.20;99.90
12370;DHT22;6249;52.128;9.986;2023-04-15T10:36:07;9.30;99.90
12370;DHT22;6249;52.128;9.986;2023-04-15T10:39:37;9.20;99.90
12370;DHT22;6249;52.128;9.986;2023-04-15T10:43:01;9.20;99.90
12370;DHT22;6249;52.128;9.986;2023-04-15T10:50:00;9.30;99.90
12370;DHT22;6249;52.128;9.986;2023-04-15T10:53:30;9.40;99.90
12370;DHT22;6249;52.128;9.986;2023-04-15T11:00:30;9.40;99.90
12370;DHT22;6249;52.128;9.986;2023-04-15T11:03:54;9.40;99.90
12370;DHT22;6249;52.128;9.986;2023-04-15T11:07:14;9.40;99.90
12370;DHT22;6249;52.128;9.986;2023-04-15T11:13:58;9.40;99.90
12370;DHT22;6249;52.128;9.986;2023-04-15T11:17:28;9.40;99.90
12370;DHT22;6249;52.128;9.986;2023-04-15T11:20:52;9.40;99.90
12370;DHT22;6249;52.128;9.986;2023-04-15T11:24:25;9.50;99.90
12370;DHT22;6249;52.128;9.986;2023-04-15T11:27:48;9.40;99.90
12370;DHT22;6249;52.128;9.986;2023-04-15T11:31:18;9.40;99.90
12370;DHT22;6249;52.128;9.986;2023-04-15T11:34:44;9.40;99.90
12370;DHT22;6249;52.128;9.986;2023-04-15T11:38:10;9.40;99.90
12370;DHT22;6249;52.128;9.986;2023-04-15T11:41:31;9.40;99.90
12370;DHT22;6249;52.128;9.986;2023-04-15T11:45:14;9.40;99.90
12370;DHT22;6249;52.128;9.986;2023-04-15T11:48:35;9.50;99.90
12370;DHT22;6249;52.128;9.986;2023-04-15T11:51:56;9.50;99.90
12370;DHT22;6249;52.128;9.986;2023-04-15T11:55:19;9.50;99.90
12370;DHT22;6249;52.128;9.986;2023-04-15T11:58:43;9.50;99.90
12370;DHT22;6249;52.128;9.986;2023-04-15T12:02:12;9.60;99.90
12370;DHT22;6249;52.128;9.986;2023-04-15T12:05:33;9.60;99.90
12370;DHT22;6249;52.128;9.986;2023-04-15T12:09:11;9.60;99.90
12370;DHT22;6249;52.128;9.986;2023-04-15T12:12:33;9.70;99.90
12370;DHT22;6249;52.128;9.986;2023-04-15T12:15:54;9.70;99.90
12370;DHT22;6249;52.128;9.986;2023-04-15T12:19:18;9.80;99.90
12370;DHT22;6249;52.128;9.986;2023-04-15T12:22:41;9.80;99.90
12370;DHT22;6249;52.128;9.986;2023-04-15T12:26:05;9.80;99.90
12370;DHT22;6249;52.128;9.986;2023-04-15T12:29:28;9.80;99.90
12370;DHT22;6249;52.128;9.986;2023-04-15T12:32:51;9.80;99.90
12370;DHT22;6249;52.128;9.986;2023-04-15T12:36:13;9.90;99.90
12370;DHT22;6249;52.128;9.986;2023-04-15T12:39:38;9.90;99.90
12370;DHT22;6249;52.128;9.986;2023-04-15T12:42:59;9.90;99.90
12370;DHT22;6249;52.128;9.986;2023-04-15T12:46:22;10.00;99.90
12370;DHT22;6249;52.128;9.986;2023-04-15T12:49:42;10.10;99.90
12370;DHT22;6249;52.128;9.986;2023-04-15T12:53:03;10.00;99.90
12370;DHT22;6249;52.128;9.986;2023-04-15T12:56:24;10.00;99.90
12370;DHT22;6249;52.128;9.986;2023-04-15T12:59:46;10.00;99.90
12370;DHT22;6249;52.128;9.986;2023-04-15T13:03:14;10.10;99.90
12370;DHT22;6249;52.128;9.986;2023-04-15T13:06:42;10.10;99.90
12370;DHT22;6249;52.128;9.986;2023-04-15T13:10:05;10.10;99.90
12370;DHT22;6249;52.128;9.986;2023-04-15T13:13:28;10.10;99.90
12370;DHT22;6249;52.128;9.986;2023-04-15T13:16:51;10.20;99.90
12370;DHT22;6249;52.128;9.986;2023-04-15T13:20:13;10.40;99.90
12370;DHT22;6249;52.128;9.986;2023-04-15T13:23:36;10.30;99.90
12370;DHT22;6249;52.128;9.986;2023-04-15T13:26:56;10.30;99.90
12370;DHT22;6249;52.128;9.986;2023-04-15T13:30:18;10.30;99.90
12370;DHT22;6249;52.128;9.986;2023-04-15T13:33:41;10.30;99.90
12370;DHT22;6249;52.128;9.986;2023-04-15T13:37:06;10.50;99.90
12370;DHT22;6249;52.128;9.986;2023-04-15T13:40:27;10.30;99.90
12370;DHT22;6249;52.128;9.986;2023-04-15T13:43:47;10.30;99.90
12370;DHT22;6249;52.128;9.986;2023-04-15T13:47:10;10.40;99.90
12370;DHT22;6249;52.128;9.986;2023-04-15T13:50:32;10.40;99.90
12370;DHT22;6249;52.128;9.986;2023-04-15T13:53:52;10.50;99.90
12370;DHT22;6249;52.128;9.986;2023-04-15T13:57:16;10.50;99.90
12370;DHT22;6249;52.128;9.986;2023-04-15T14:00:36;10.70;99.90
12370;DHT22;6249;52.128;9.986;2023-04-15T14:03:57;10.90;99.90
12370;DHT22;6249;52.128;9.986;2023-04-15T14:07:18;10.90;99.90
12370;DHT22;6249;52.128;9.986;2023-04-15T14:10:38;11.10;99.90
12370;DHT22;6249;52.128;9.986;2023-04-15T14:13:59;11.40;99.90
12370;DHT22;6249;52.128;9.986;2023-04-15T14:17:24;11.70;99.90
12370;DHT22;6249;52.128;9.986;2023-04-15T14:20:47;11.90;99.90
12370;DHT22;6249;52.128;9.986;2023-04-15T14:24:10;12.00;99.90
12370;DHT22;6249;52.128;9.986;2023-04-15T14:27:33;12.00;99.90
12370;DHT22;6249;52.128;9.986;2023-04-15T14:30:54;12.00;99.90
12370;DHT22;6249;52.128;9.986;2023-04-15T14:34:15;11.90;99.90
12370;DHT22;6249;52.128;9.986;2023-04-15T14:37:41;11.90;99.90
12370;DHT22;6249;52.128;9.986;2023-04-15T14:41:07;11.80;99.90
12370;DHT22;6249;52.128;9.986;2023-04-15T14:44:27;12.00;99.90
12370;DHT22;6249;52.128;9.986;2023-04-15T14:47:48;12.10;99.90
12370;DHT22;6249;52.128;9.986;2023-04-15T14:51:12;12.30;99.90
12370;DHT22;6249;52.128;9.986;2023-04-15T14:54:35;12.50;99.90
12370;DHT22;6249;52.128;9.986;2023-04-15T14:57:56;12.70;99.90
12370;DHT22;6249;52.128;9.986;2023-04-15T15:01:17;12.90;99.90
12370;DHT22;6249;52.128;9.986;2023-04-15T15:04:37;13.10;99.90
12370;DHT22;6249;52.128;9.986;2023-04-15T15:08:02;13.50;99.90
12370;DHT22;6249;52.128;9.986;2023-04-15T15:11:25;13.80;99.90
12370;DHT22;6249;52.128;9.986;2023-04-15T15:14:48;13.80;99.90
12370;DHT22;6249;52.128;9.986;2023-04-15T15:18:09;13.90;99.90
12370;DHT22;6249;52.128;9.986;2023-04-15T15:21:30;13.90;99.90
12370;DHT22;6249;52.128;9.986;2023-04-15T15:24:50;14.00;99.90
12370;DHT22;6249;52.128;9.986;2023-04-15T15:28:13;14.00;99.90
12370;DHT22;6249;52.128;9.986;2023-04-15T15:31:34;13.90;99.90
12370;DHT22;6249;52.128;9.986;2023-04-15T15:34:57;14.20;99.90
12370;DHT22;6249;52.128;9.986;2023-04-15T15:38:18;14.00;99.90
12370;DHT22;6249;52.128;9.986;2023-04-15T15:41:38;13.90;99.90
12370;DHT22;6249;52.128;9.986;2023-04-15T15:45:03;13.70;99.90
12370;DHT22;6249;52.128;9.986;2023-04-15T15:48:26;13.50;99.90
12370;DHT22;6249;52.128;9.986;2023-04-15T15:51:49;13.40;99.90
12370;DHT22;6249;52.128;9.986;2023-04-15T15:55:12;13.20;99.90
12370;DHT22;6249;52.128;9.986;2023-04-15T15:58:33;13.20;99.90
12370;DHT22;6249;52.128;9.986;2023-04-15T16:01:56;13.20;99.90
12370;DHT22;6249;52.128;9.986;2023-04-15T16:05:16;13.20;99.90
12370;DHT22;6249;52.128;9.986;2023-04-15T16:08:39;13.20;99.90
12370;DHT22;6249;52.128;9.986;2023-04-15T16:12:00;13.20;99.90
12370;DHT22;6249;52.128;9.986;2023-04-15T16:15:24;13.30;99.90
12370;DHT22;6249;52.128;9.986;2023-04-15T16:18:45;13.10;99.90
12370;DHT22;6249;52.128;9.986;2023-04-15T16:22:05;13.10;99.90
12370;DHT22;6249;52.128;9.986;2023-04-15T16:25:26;13.00;99.90
12370;DHT22;6249;52.128;9.986;2023-04-15T16:28:47;13.00;99.90
12370;DHT22;6249;52.128;9.986;2023-04-15T16:32:10;12.80;99.90
12370;DHT22;6249;52.128;9.986;2023-04-15T16:35:31;12.70;99.90
12370;DHT22;6249;52.128;9.986;2023-04-15T16:38:51;12.70;99.90
12370;DHT22;6249;52.128;9.986;2023-04-15T16:42:15;12.50;99.90
12370;DHT22;6249;52.128;9.986;2023-04-15T16:45:35;12.40;99.90
12370;DHT22;6249;52.128;9.986;2023-04-15T16:48:58;12.30;99.90
12370;DHT22;6249;52.128;9.986;2023-04-15T16:52:19;12.30;99.90
12370;DHT22;6249;52.128;9.986;2023-04-15T16:55:40;12.20;99.90
12370;DHT22;6249;52.128;9.986;2023-04-15T16:59:03;12.10;99.90
12370;DHT22;6249;52.128;9.986;2023-04-15T17:02:26;12.10;99.90
12370;DHT22;6249;52.128;9.986;2023-04-15T17:05:46;12.10;99.90
12370;DHT22;6249;52.128;9.986;2023-04-15T17:09:07;12.00;99.90
12370;DHT22;6249;52.128;9.986;2023-04-15T17:12:28;12.10;99.90
12370;DHT22;6249;52.128;9.986;2023-04-15T17:15:49;12.10;99.90
12370;DHT22;6249;52.128;9.986;2023-04-15T17:19:12;12.10;99.90
12370;DHT22;6249;52.128;9.986;2023-04-15T17:22:32;12.00;99.90
12370;DHT22;6249;52.128;9.986;2023-04-15T17:25:53;12.00;99.90
12370;DHT22;6249;52.128;9.986;2023-04-15T17:29:14;12.00;99.90
12370;DHT22;6249;52.128;9.986;2023-04-15T17:32:34;11.90;99.90
12370;DHT22;6249;52.128;9.986;2023-04-15T17:35:56;11.80;99.90
12370;DHT22;6249;52.128;9.986;2023-04-15T17:39:17;11.80;99.90
12370;DHT22;6249;52.128;9.986;2023-04-15T17:42:41;11.80;99.90
12370;DHT22;6249;52.128;9.986;2023-04-15T17:46:07;11.70;99.90
12370;DHT22;6249;52.128;9.986;2023-04-15T17:49:27;11.80;99.90
12370;DHT22;6249;52.128;9.986;2023-04-15T17:52:53;12.00;99.90
12370;DHT22;6249;52.128;9.986;2023-04-15T17:56:14;11.80;99.90
12370;DHT22;6249;52.128;9.986;2023-04-15T17:59:34;11.90;99.90
12370;DHT22;6249;52.128;9.986;2023-04-15T18:02:57;11.80;99.90
12370;DHT22;6249;52.128;9.986;2023-04-15T18:06:18;11.80;99.90
12370;DHT22;6249;52.128;9.986;2023-04-15T18:09:40;11.80;99.90
12370;DHT22;6249;52.128;9.986;2023-04-15T18:13:03;11.80;99.90
12370;DHT22;6249;52.128;9.986;2023-04-15T18:16:25;11.70;99.90
12370;DHT22;6249;52.128;9.986;2023-04-15T18:19:48;11.70;99.90
12370;DHT22;6249;52.128;9.986;2023-04-15T18:23:09;11.70;99.90
12370;DHT22;6249;52.128;9.986;2023-04-15T18:26:29;11.70;99.90
12370;DHT22;6249;52.128;9.986;2023-04-15T18:29:53;11.70;99.90
12370;DHT22;6249;52.128;9.986;2023-04-15T18:33:14;11.70;99.90
12370;DHT22;6249;52.128;9.986;2023-04-15T18:36:35;11.60;99.90
12370;DHT22;6249;52.128;9.986;2023-04-15T18:39:58;11.60;99.90
12370;DHT22;6249;52.128;9.986;2023-04-15T18:43:21;11.60;99.90
12370;DHT22;6249;52.128;9.986;2023-04-15T18:46:42;11.60;99.90
12370;DHT22;6249;52.128;9.986;2023-04-15T18:50:02;11.60;99.90
12370;DHT22;6249;52.128;9.986;2023-04-15T18:53:25;11.60;99.90
12370;DHT22;6249;52.128;9.986;2023-04-15T18:56:49;11.60;99.90
12370;DHT22;6249;52.128;9.986;2023-04-15T19:00:12;11.60;99.90
12370;DHT22;6249;52.128;9.986;2023-04-15T19:03:33;11.60;99.90
12370;DHT22;6249;52.128;9.986;2023-04-15T19:06:53;11.60;99.90
12370;DHT22;6249;52.128;9.986;2023-04-15T19:10:18;11.50;99.90
12370;DHT22;6249;52.128;9.986;2023-04-15T19:13:38;11.50;99.90
12370;DHT22;6249;52.128;9.986;2023-04-15T19:17:01;11.50;99.90
12370;DHT22;6249;52.128;9.986;2023-04-15T19:20:22;11.50;99.90
12370;DHT22;6249;52.128;9.986;2023-04-15T19:23:44;11.60;99.90
12370;DHT22;6249;52.128;9.986;2023-04-15T19:27:09;11.60;99.90
12370;DHT22;6249;52.128;9.986;2023-04-15T19:30:34;11.60;99.90
12370;DHT22;6249;52.128;9.986;2023-04-15T19:33:55;11.50;99.90
12370;DHT22;6249;52.128;9.986;2023-04-15T19:37:16;11.50;99.90
12370;DHT22;6249;52.128;9.986;2023-04-15T19:40:37;11.50;99.90
12370;DHT22;6249;52.128;9.986;2023-04-15T19:43:58;11.50;99.90
12370;DHT22;6249;52.128;9.986;2023-04-15T19:47:19;11.50;99.90
12370;DHT22;6249;52.128;9.986;2023-04-15T19:50:39;11.60;99.90
12370;DHT22;6249;52.128;9.986;2023-04-15T19:54:00;11.40;99.90
12370;DHT22;6249;52.128;9.986;2023-04-15T19:57:25;11.50;99.90
12370;DHT22;6249;52.128;9.986;2023-04-15T20:00:50;11.50;99.90
12370;DHT22;6249;52.128;9.986;2023-04-15T20:04:11;11.50;99.90
12370;DHT22;6249;52.128;9.986;2023-04-15T20:07:34;11.50;99.90
12370;DHT22;6249;52.128;9.986;2023-04-15T20:10:55;11.40;99.90
12370;DHT22;6249;52.128;9.986;2023-04-15T20:14:22;11.40;99.90
12370;DHT22;6249;52.128;9.986;2023-04-15T20:17:44;11.40;99.90
12370;DHT22;6249;52.128;9.986;2023-04-15T20:21:05;11.40;99.90
12370;DHT22;6249;52.128;9.986;2023-04-15T20:24:28;11.40;99.90
12370;DHT22;6249;52.128;9.986;2023-04-15T20:27:48;11.40;99.90
12370;DHT22;6249;52.128;9.986;2023-04-15T20:31:11;11.30;99.90
12370;DHT22;6249;52.128;9.986;2023-04-15T20:34:32;11.30;99.90
12370;DHT22;6249;52.128;9.986;2023-04-15T20:37:55;11.30;99.90
12370;DHT22;6249;52.128;9.986;2023-04-15T20:41:18;11.30;99.90
12370;DHT22;6249;52.128;9.986;2023-04-15T20:44:39;11.30;99.90
12370;DHT22;6249;52.128;9.986;2023-04-15T20:47:59;11.40;99.90
12370;DHT22;6249;52.128;9.986;2023-04-15T20:51:20;11.40;99.90
12370;DHT22;6249;52.128;9.986;2023-04-15T20:54:43;11.40;99.90
12370;DHT22;6249;52.128;9.986;2023-04-15T20:58:06;11.30;99.90
12370;DHT22;6249;52.128;9.986;2023-04-15T21:01:26;11.40;99.90
12370;DHT22;6249;52.128;9.986;2023-04-15T21:04:47;11.40;99.90
12370;DHT22;6249;52.128;9.986;2023-04-15T21:08:10;11.30;99.90
12370;DHT22;6249;52.128;9.986;2023-04-15T21:11:32;11.30;99.90
12370;DHT22;6249;52.128;9.986;2023-04-15T21:14:52;11.20;99.90
12370;DHT22;6249;52.128;9.986;2023-04-15T21:18:15;11.30;99.90
12370;DHT22;6249;52.128;9.986;2023-04-15T21:21:36;11.10;99.90
12370;DHT22;6249;52.128;9.986;2023-04-15T21:24:56;11.30;99.90
12370;DHT22;6249;52.128;9.986;2023-04-15T21:28:17;11.20;99.90
12370;DHT22;6249;52.128;9.986;2023-04-15T21:31:38;11.20;99.90
12370;DHT22;6249;52.128;9.986;2023-04-15T21:34:59;11.20;99.90
12370;DHT22;6249;52.128;9.986;2023-04-15T21:38:19;11.20;99.90
12370;DHT22;6249;52.128;9.986;2023-04-15T21:41:42;11.10;99.90
12370;DHT22;6249;52.128;9.986;2023-04-15T21:45:03;11.20;99.90
12370;DHT22;6249;52.128;9.986;2023-04-15T21:48:29;11.20;99.90
12370;DHT22;6249;52.128;9.986;2023-04-15T21:51:52;11.10;99.90
12370;DHT22;6249;52.128;9.986;2023-04-15T21:55:13;11.10;99.90
12370;DHT22;6249;52.128;9.986;2023-04-15T21:58:34;11.10;99.90
12370;DHT22;6249;52.128;9.986;2023-04-15T22:01:54;11.10;99.90